Aeroporto :
LOGIN :

Iscrizione | Disclaimer

   EN    FR    IT 

 










Sommario :    VFR   VFR Marginale   IFR   IFR Intensivo   IFR Molto Intensivo
Visibilità : 
Base nubi : 
>= 8 km
>= 3000ft
5 / 8 km
1000 / 3000 ft
1500m / 5 km
500 / 1000 ft
800 / 1500m
200 / 500 ft
< 800m
< 200 ft
Simboli :   Temporali  Nebbia  Neve Forte  Precipitazioni Forti  Vento > 20 kt
SIGMETs :   Varie  Temporali  Ghiacco  Turbolenza  Onda orograficha  Ceneri Vulcaniche







- Altitudine del aeroporto : 913 ft
- Carte del aeroporto


LFSX - Luxeuil

ULTIMO METAR :
  • 270430Z AUTO 00000KT CAVOK 11/10 Q1013

METARs OBSOLETI :
  • 270400Z AUTO 27001KT CAVOK 11/10 Q1013
  • 270330Z AUTO 29002KT CAVOK 11/10 Q1013
  • 270300Z AUTO 00000KT CAVOK 11/10 Q1013
  • 270230Z AUTO 00000KT CAVOK 12/09 Q1013
  • 270200Z AUTO 09003KT 9999 BKN048 OVC060 11/09 Q1013

TAF AMD TAF LFSX
Valido dal 27 a 05 ore il 28 a 03 ore UTC


270435Z 2705/2803 27005KT 9999 BKN049
PROB40
TEMPO 2718/2803 4900 -SHRA BKN014
Nessun NOTAM noto per questo aeroporto.



MetMap, La meteo Aeronautica in un colpo d'occhio ! - Copyright ORBIFLY Dicembre 2007 - Disclaimer

ORBIFLY MET'MAP TEAM :

Programmazione e sviluppo : Alexandra Zaïnal
Concezione e sviluppo : Baudouin d'Aumeries
Co-Programmazione e sviluppo : Marc-Olivier Méhu
Supporto tecnico e logistico : Manuel Goepfert
Aiuto per la traduzione : Arnaldo La Scala

Contatto : metmap@orbifly.com




FONTI E CREDITI :

   NOAA